Time;durP1;ratioP1;P1;durP2;ratioP2;P2;SDS_P1;SDS_P2;PMS_P1;PMS_P2;Temp;Humidity;BMP_temperature;BMP_pressure;BME280_temperature;BME280_humidity;BME280_pressure;Samples;Min_cycle;Max_cycle;Signal;HPM_P1;HPM_P2
2022/01/27 00:04:27;;;;;;;1999.90;999.90;;;;;;;5.39;100.00;102697.22;5000001;28;20038;-69
2022/01/27 00:06:52;;;;;;;1999.90;999.90;;;;;;;5.39;100.00;102689.31;4996898;28;20541;-70
2022/01/27 00:09:37;;;;;;;1999.90;999.90;;;;;;;5.39;100.00;102689.31;4996086;28;20065;-70
2022/01/27 00:12:02;;;;;;;1999.90;999.90;;;;;;;5.36;100.00;102682.22;4995325;28;20066;-69
2022/01/27 00:14:28;;;;;;;1999.90;999.90;;;;;;;5.41;100.00;102677.88;4995796;28;20056;-69
2022/01/27 00:16:58;;;;;;;1999.90;999.90;;;;;;;5.38;100.00;102680.50;4997190;28;20113;-69
2022/01/27 00:19:24;;;;;;;1999.90;999.90;;;;;;;5.36;100.00;102679.59;4999595;28;20133;-69
2022/01/27 00:21:50;;;;;;;1999.90;999.90;;;;;;;5.42;100.00;102666.47;4997642;28;20208;-69
2022/01/27 00:24:16;;;;;;;1999.90;999.90;;;;;;;5.35;100.00;102676.97;5000843;28;20048;-69
2022/01/27 00:26:42;;;;;;;1999.90;999.90;;;;;;;5.39;100.00;102671.72;4995851;28;20057;-69
2022/01/27 00:29:08;;;;;;;1999.90;999.90;;;;;;;5.44;100.00;102664.72;4995641;28;20061;-69
2022/01/27 00:31:33;;;;;;;1999.90;999.90;;;;;;;5.46;100.00;102664.75;4997975;28;20026;-70
2022/01/27 00:34:03;;;;;;;1999.90;999.90;;;;;;;5.42;100.00;102677.00;4995130;28;20030;-70
2022/01/27 00:36:29;;;;;;;1999.90;999.90;;;;;;;5.42;100.00;102681.41;4994729;28;20040;-69
2022/01/27 00:38:54;;;;;;;1999.90;999.90;;;;;;;5.52;100.00;102681.47;4994490;28;20027;-70
2022/01/27 00:41:21;;;;;;;1999.90;999.90;;;;;;;5.43;100.00;102667.34;4994995;28;20026;-70
2022/01/27 00:43:48;;;;;;;1999.90;999.90;;;;;;;5.50;100.00;102653.38;4996054;28;20573;-69
2022/01/27 00:46:16;;;;;;;1999.90;999.90;;;;;;;5.52;100.00;102665.69;4994660;28;20088;-70
2022/01/27 00:48:42;;;;;;;1999.90;999.90;;;;;;;5.54;100.00;102653.41;4996021;28;20046;-69
2022/01/27 00:51:10;;;;;;;1999.90;999.90;;;;;;;5.59;100.00;102659.59;4994701;28;20103;-70
2022/01/27 00:53:45;;;;;;;1999.90;999.90;;;;;;;5.66;100.00;102657.84;4995911;28;20038;-70
2022/01/27 00:56:25;;;;;;;1999.90;999.90;;;;;;;5.72;100.00;102671.94;4994363;28;20034;-70
2022/01/27 01:01:27;;;;;;;1999.90;999.90;;;;;;;5.81;100.00;102661.47;4996296;28;20034;-70
2022/01/27 01:03:57;;;;;;;1999.90;999.90;;;;;;;5.77;100.00;102632.44;4994136;28;20027;-70
2022/01/27 01:06:44;;;;;;;1999.90;999.90;;;;;;;5.87;100.00;102655.38;4995694;28;20041;-70
2022/01/27 01:17:15;;;;;;;1999.90;999.90;;;;;;;5.86;100.00;102595.63;4995129;28;20401;-70
2022/01/27 01:30:48;;;;;;;1999.90;999.90;;;;;;;5.80;100.00;102611.34;4995371;28;20497;-70
2022/01/27 01:33:20;;;;;;;;;;;;;;;5.87;100.00;102602.63;4995722;28;20081;-70
2022/01/27 01:35:51;;;;;;;1999.90;999.90;;;;;;;5.83;100.00;102600.88;4995031;28;20361;-70
2022/01/27 01:38:22;;;;;;;1999.90;999.90;;;;;;;5.82;100.00;102578.00;4994980;28;20037;-70
2022/01/27 01:40:49;;;;;;;1999.90;999.90;;;;;;;5.82;100.00;102571.00;4996085;28;20026;-70
2022/01/27 01:43:16;;;;;;;1999.90;999.90;;;;;;;5.88;100.00;102572.75;4993856;28;20117;-71
2022/01/27 01:46:24;;;;;;;1999.90;999.90;;;;;;;5.81;100.00;102581.50;4994862;28;20030;-70
2022/01/27 01:48:50;;;;;;;1999.90;999.90;;;;;;;5.78;100.00;102576.22;5006301;28;20054;-70
2022/01/27 01:51:28;;;;;;;1999.90;999.90;;;;;;;5.66;100.00;102574.38;5014189;28;20068;-70
2022/01/27 01:54:13;;;;;;;1999.90;999.90;;;;;;;5.61;100.00;102562.94;5013166;28;20374;-70
2022/01/27 01:56:46;;;;;;;1999.90;999.90;;;;;;;5.50;100.00;102562.00;5013877;28;20025;-70
2022/01/27 01:59:12;;;;;;;1999.90;999.90;;;;;;;5.50;100.00;102569.03;5014717;28;20084;-70
2022/01/27 02:01:38;;;;;;;1999.90;999.90;;;;;;;5.47;100.00;102580.44;5014391;28;20030;-70
2022/01/27 02:04:07;;;;;;;1999.90;999.90;;;;;;;5.43;100.00;102583.03;5013191;28;20026;-70
2022/01/27 02:06:43;;;;;;;1999.90;999.90;;;;;;;5.39;100.00;102566.31;5014769;28;20050;-70
2022/01/27 02:09:17;;;;;;;1999.90;999.90;;;;;;;5.36;100.00;102574.22;5014251;28;20381;-70
2022/01/27 02:19:56;;;;;;;1999.90;999.90;;;;;;;5.31;100.00;102561.91;5014809;28;20172;-70
2022/01/27 02:22:23;;;;;;;1999.90;999.90;;;;;;;5.30;100.00;102557.47;5012654;28;20029;-69
2022/01/27 02:24:50;;;;;;;1999.90;999.90;;;;;;;5.35;100.00;102571.56;5013401;28;20041;-70
2022/01/27 02:27:17;;;;;;;1999.90;999.90;;;;;;;5.33;100.00;102579.47;5013864;28;20057;-70
2022/01/27 02:29:44;;;;;;;1999.90;999.90;;;;;;;5.32;100.00;102559.28;5013898;28;20374;-70
2022/01/27 02:32:11;;;;;;;1999.90;999.90;;;;;;;5.35;100.00;102568.94;5013412;28;20474;-70
2022/01/27 02:34:37;;;;;;;1999.90;999.90;;;;;;;5.31;100.00;102575.06;5016862;28;20036;-70
2022/01/27 02:40:42;;;;;;;1999.90;999.90;;;;;;;5.36;100.00;102573.31;5018083;28;20080;-70
2022/01/27 02:43:09;;;;;;;1999.90;999.90;;;;;;;5.38;100.00;102558.41;5017691;28;20057;-69
2022/01/27 02:45:54;;;;;;;1999.90;999.90;;;;;;;5.32;100.00;102561.03;5016293;28;20088;-70
2022/01/27 02:48:20;;;;;;;1999.90;999.90;;;;;;;5.32;100.00;102572.44;5017475;28;20504;-69
2022/01/27 02:50:45;;;;;;;1999.90;999.90;;;;;;;5.30;100.00;102555.75;5017406;28;20037;-69
2022/01/27 02:53:11;;;;;;;1999.90;999.90;;;;;;;5.34;100.00;102557.50;5017801;28;20030;-70
2022/01/27 02:55:37;;;;;;;1999.90;999.90;;;;;;;5.41;100.00;102547.88;5016201;28;20028;-69
2022/01/27 02:58:03;;;;;;;1999.90;999.90;;;;;;;5.46;100.00;102541.78;5016213;28;20041;-70
2022/01/27 03:00:31;;;;;;;1999.90;999.90;;;;;;;5.42;100.00;102529.47;5016125;28;20072;-69
2022/01/27 03:02:56;;;;;;;1999.90;999.90;;;;;;;5.48;100.00;102528.63;5016049;28;20097;-70
2022/01/27 03:05:22;;;;;;;1999.90;999.90;;;;;;;5.36;100.00;102518.91;5017130;28;20108;-70
2022/01/27 03:07:48;;;;;;;1999.90;999.90;;;;;;;5.28;100.00;102509.22;5017352;28;20115;-70
2022/01/27 03:10:18;;;;;;;1999.90;999.90;;;;;;;5.22;100.00;102504.78;5015934;28;20389;-70
2022/01/27 03:12:44;;;;;;;1999.90;999.90;;;;;;;5.14;100.00;102495.94;5015934;28;20037;-70
2022/01/27 03:15:11;;;;;;;1999.90;999.90;;;;;;;5.05;100.00;102489.75;5016991;28;20032;-70
2022/01/27 03:17:37;;;;;;;1999.90;999.90;;;;;;;5.05;100.00;102493.25;5017207;28;20034;-70
2022/01/27 03:20:03;;;;;;;1999.90;999.90;;;;;;;5.01;100.00;102491.47;5015703;28;20500;-70
2022/01/27 03:23:07;;;;;;;1999.90;999.90;;;;;;;4.85;100.00;102479.09;5015803;28;20029;-69
2022/01/27 03:25:32;;;;;;;1999.90;999.90;;;;;;;4.86;100.00;102480.84;5017671;28;20144;-70
2022/01/27 03:27:58;;;;;;;1999.90;999.90;;;;;;;4.83;100.00;102466.78;5016600;28;20081;-70
2022/01/27 03:30:32;;;;;;;1999.90;999.90;;;;;;;4.81;100.00;102474.66;5017283;28;20488;-70
2022/01/27 03:32:57;;;;;;;1999.90;999.90;;;;;;;4.86;100.00;102462.44;5017261;28;20029;-70
2022/01/27 03:35:22;;;;;;;1999.90;999.90;;;;;;;4.83;100.00;102458.88;5015746;28;20608;-70
2022/01/27 03:37:47;;;;;;;1999.90;999.90;;;;;;;4.81;100.00;102456.25;5015132;28;20059;-69
2022/01/27 03:40:13;;;;;;;1999.90;999.90;;;;;;;4.80;100.00;102445.72;5017238;28;20101;-70
2022/01/27 03:42:45;;;;;;;1999.90;999.90;;;;;;;4.80;100.00;102466.75;5016551;28;20021;-70
2022/01/27 03:45:12;;;;;;;1999.90;999.90;;;;;;;4.81;100.00;102447.50;5016289;28;20033;-69
2022/01/27 03:47:37;;;;;;;1999.90;999.90;;;;;;;4.80;100.00;102443.97;5016417;28;20033;-70
2022/01/27 03:50:03;;;;;;;1999.90;999.90;;;;;;;4.82;100.00;102446.59;5014982;28;20029;-70
2022/01/27 03:52:29;;;;;;;1999.90;999.90;;;;;;;4.83;100.00;102443.09;5016446;28;20038;-70
2022/01/27 03:54:54;;;;;;;1999.90;999.90;;;;;;;4.82;100.00;102436.97;5016733;28;20068;-70
2022/01/27 03:57:19;;;;;;;1999.90;999.90;;;;;;;4.79;100.00;102426.38;5017085;28;20113;-69
2022/01/27 03:59:44;;;;;;;1999.90;999.90;;;;;;;4.86;100.00;102422.94;5016305;28;20037;-70
2022/01/27 04:02:10;;;;;;;1999.90;999.90;;;;;;;5.02;100.00;102437.94;5016318;28;20066;-70
2022/01/27 04:04:35;;;;;;;1999.90;999.90;;;;;;;5.10;100.00;102423.06;5016309;28;20552;-70
2022/01/27 04:07:03;;;;;;;1999.90;999.90;;;;;;;5.13;100.00;102409.03;5016588;28;20029;-70
2022/01/27 04:09:28;;;;;;;1999.90;999.90;;;;;;;5.18;100.00;102416.09;5016577;28;20084;-69
2022/01/27 04:11:54;;;;;;;1999.90;999.90;;;;;;;5.16;100.00;102419.56;5016471;28;20541;-70
2022/01/27 04:14:19;;;;;;;1999.90;999.90;;;;;;;5.17;100.00;102414.31;5016213;28;20030;-70
2022/01/27 04:16:45;;;;;;;1999.90;999.90;;;;;;;5.29;100.00;102417.00;5015628;28;20342;-70
2022/01/27 04:19:10;;;;;;;1999.90;999.90;;;;;;;5.22;100.00;102420.47;5016098;28;20449;-70
2022/01/27 04:21:36;;;;;;;1999.90;999.90;;;;;;;5.33;100.00;102418.78;5014849;28;20101;-70
2022/01/27 04:24:01;;;;;;;1999.90;999.90;;;;;;;5.37;100.00;102427.56;5016043;28;20032;-70
2022/01/27 04:26:35;;;;;;;1999.90;999.90;;;;;;;5.40;100.00;102407.41;5014731;28;20037;-70
2022/01/27 04:29:01;;;;;;;1999.90;999.90;;;;;;;5.50;100.00;102406.53;5014540;28;20454;-70
2022/01/27 04:31:28;;;;;;;1999.90;999.90;;;;;;;5.62;100.00;102410.97;5014757;28;20030;-70
2022/01/27 04:33:54;;;;;;;1999.90;999.90;;;;;;;5.70;100.00;102404.84;5016155;28;20040;-71
2022/01/27 04:36:34;;;;;;;1999.90;999.90;;;;;;;5.73;100.00;102406.59;5015648;28;20030;-70
2022/01/27 04:39:28;;;;;;;1999.90;999.90;;;;;;;5.70;100.00;102388.13;5015993;28;20460;-70
2022/01/27 04:41:56;;;;;;;1999.90;999.90;;;;;;;5.79;100.00;102389.03;5015027;28;20041;-70
2022/01/27 04:44:35;;;;;;;1999.90;999.90;;;;;;;5.91;100.00;102385.53;5014332;28;20037;-70
2022/01/27 04:47:07;;;;;;;1999.90;999.90;;;;;;;5.92;100.00;102375.03;5014162;28;20048;-70
2022/01/27 04:49:33;;;;;;;1999.90;999.90;;;;;;;5.96;100.00;102368.88;5013795;28;20029;-70
2022/01/27 04:51:58;;;;;;;1999.90;999.90;;;;;;;6.00;100.00;102373.25;5010545;28;20030;-70
2022/01/27 04:54:40;;;;;;;1999.90;999.90;;;;;;;6.10;100.00;102368.84;4994395;28;20030;-70
2022/01/27 04:57:07;;;;;;;1999.90;999.90;;;;;;;6.11;100.00;102374.13;5002441;28;20080;-70
2022/01/27 04:59:38;;;;;;;1999.90;999.90;;;;;;;6.17;100.00;102366.25;5015374;28;20017;-70
2022/01/27 05:02:09;;;;;;;1999.90;999.90;;;;;;;6.24;100.00;102377.63;5014073;28;20033;-69
2022/01/27 05:04:40;;;;;;;1999.90;999.90;;;;;;;6.31;100.00;102375.88;5015321;28;20053;-69
2022/01/27 05:07:06;;;;;;;1999.90;999.90;;;;;;;6.33;100.00;102376.75;5013525;28;20038;-70
2022/01/27 05:09:31;;;;;;;1999.90;999.90;;;;;;;6.37;100.00;102375.91;5011949;28;20045;-70
2022/01/27 05:12:08;;;;;;;1999.90;999.90;;;;;;;6.45;100.00;102358.25;5003671;28;20109;-70
2022/01/27 05:14:34;;;;;;;1999.90;999.90;;;;;;;6.47;100.00;102359.16;4994563;28;20037;-70
2022/01/27 05:16:59;;;;;;;1999.90;999.90;;;;;;;6.42;100.00;102369.72;4995873;28;20378;-70
2022/01/27 05:19:24;;;;;;;1999.90;999.90;;;;;;;6.49;100.00;102366.19;4995703;28;20173;-70
2022/01/27 05:21:50;;;;;;;1999.90;999.90;;;;;;;6.46;100.00;102360.91;5005265;28;20029;-72
2022/01/27 05:24:16;;;;;;;1999.90;999.90;;;;;;;6.47;100.00;102364.44;5009973;28;20120;-72
2022/01/27 05:26:42;;;;;;;1999.90;999.90;;;;;;;6.62;100.00;102359.13;5007321;28;20037;-70
2022/01/27 05:29:09;;;;;;;1999.90;999.90;;;;;;;6.63;100.00;102355.59;5012895;28;20018;-70
2022/01/27 05:31:34;;;;;;;1999.90;999.90;;;;;;;6.62;100.00;102356.50;5004110;28;20033;-70
2022/01/27 05:34:00;;;;;;;1999.90;999.90;;;;;;;6.60;100.00;102360.88;5004632;28;20029;-70
2022/01/27 05:36:25;;;;;;;1999.90;999.90;;;;;;;6.66;100.00;102347.66;5001884;28;20030;-70
2022/01/27 05:38:50;;;;;;;1999.90;999.90;;;;;;;6.66;100.00;102353.84;5007199;28;20026;-71
2022/01/27 05:41:16;;;;;;;1999.90;999.90;;;;;;;6.72;100.00;102345.00;5003769;28;20034;-70
2022/01/27 05:43:42;;;;;;;1999.90;999.90;;;;;;;6.75;100.00;102340.59;5006201;28;20034;-69
2022/01/27 05:46:07;;;;;;;1999.90;999.90;;;;;;;6.73;100.00;102352.06;5003264;28;20490;-69
2022/01/27 05:48:33;;;;;;;1999.90;999.90;;;;;;;6.79;100.00;102331.78;5003097;28;20045;-74
2022/01/27 05:50:58;;;;;;;1999.90;999.90;;;;;;;6.72;100.00;102337.09;5002105;28;20068;-69
2022/01/27 05:53:24;;;;;;;1999.90;999.90;;;;;;;6.76;100.00;102328.28;5001816;28;20058;-70
2022/01/27 05:55:49;;;;;;;1999.90;999.90;;;;;;;6.84;100.00;102334.41;5003801;28;20028;-73
2022/01/27 05:58:15;;;;;;;1999.90;999.90;;;;;;;6.74;100.00;102335.31;5004967;28;20042;-70
2022/01/27 06:00:41;;;;;;;1999.90;999.90;;;;;;;6.75;100.00;102327.41;5004289;28;20083;-70
2022/01/27 06:03:06;;;;;;;1999.90;999.90;;;;;;;6.89;100.00;102322.94;5004172;28;20117;-72
2022/01/27 06:05:33;;;;;;;1999.90;999.90;;;;;;;6.91;100.00;102321.19;5003974;28;20030;-73
2022/01/27 06:07:58;;;;;;;1999.90;999.90;;;;;;;6.83;100.00;102327.38;5006694;28;20038;-69
2022/01/27 06:10:23;;;;;;;1999.90;999.90;;;;;;;6.83;100.00;102328.25;4999487;28;20026;-69
2022/01/27 06:12:56;;;;;;;1999.90;999.90;;;;;;;6.82;100.00;102320.34;4994151;28;20031;-70
2022/01/27 06:15:22;;;;;;;1999.90;999.90;;;;;;;6.91;100.00;102315.91;5002182;28;20030;-70
2022/01/27 06:17:48;;;;;;;1999.90;999.90;;;;;;;6.94;100.00;102318.53;5008687;28;20072;-71
2022/01/27 06:20:14;;;;;;;1999.90;999.90;;;;;;;6.99;100.00;102315.84;5010468;28;20022;-70
2022/01/27 06:22:40;;;;;;;1999.90;999.90;;;;;;;6.97;100.00;102315.88;5014634;28;20030;-69
2022/01/27 06:25:06;;;;;;;1999.90;999.90;;;;;;;6.98;100.00;102319.41;5014743;28;20049;-69
2022/01/27 06:27:31;;;;;;;1999.90;999.90;;;;;;;7.02;100.00;102310.56;5014358;28;20050;-69
2022/01/27 06:29:57;;;;;;;1999.90;999.90;;;;;;;7.02;100.00;102303.53;5014856;28;20038;-69
2022/01/27 06:32:22;;;;;;;1999.90;999.90;;;;;;;6.96;100.00;102303.56;5014783;28;20439;-69
2022/01/27 06:34:48;;;;;;;1999.90;999.90;;;;;;;6.98;100.00;102306.19;5014650;28;20168;-69
2022/01/27 06:37:13;;;;;;;1999.90;999.90;;;;;;;7.01;100.00;102301.75;5013238;28;20033;-69
2022/01/27 06:39:39;;;;;;;1999.90;999.90;;;;;;;6.98;100.00;102312.31;5014747;28;20065;-70
2022/01/27 06:42:07;;;;;;;1999.90;999.90;;;;;;;6.99;100.00;102311.47;5014909;28;20113;-69
2022/01/27 06:44:32;;;;;;;1999.90;999.90;;;;;;;7.09;100.00;102301.72;5014018;28;20054;-69
2022/01/27 06:46:58;;;;;;;1999.90;999.90;;;;;;;7.03;100.00;102296.44;5013210;28;20054;-69
2022/01/27 06:49:23;;;;;;;1999.90;999.90;;;;;;;7.10;100.00;102292.91;5014147;28;20029;-70
2022/01/27 06:51:48;;;;;;;1999.90;999.90;;;;;;;7.04;100.00;102296.47;5013269;28;20472;-70
2022/01/27 06:54:16;;;;;;;1999.90;999.90;;;;;;;7.06;100.00;102310.53;5013481;28;20034;-69
2022/01/27 06:56:41;;;;;;;1999.90;999.90;;;;;;;7.08;100.00;102332.53;5014612;28;20425;-73
2022/01/27 06:59:07;;;;;;;1999.90;999.90;;;;;;;7.04;100.00;102309.69;5014305;28;20072;-71
2022/01/27 07:01:32;;;;;;;1999.90;999.90;;;;;;;7.18;100.00;102312.25;5013271;28;20029;-70
2022/01/27 07:03:57;;;;;;;1999.90;999.90;;;;;;;7.11;100.00;102314.03;5016843;28;20108;-74
2022/01/27 07:06:23;;;;;;;1999.90;999.90;;;;;;;7.18;100.00;102322.81;5014332;28;20025;-71
2022/01/27 07:08:48;;;;;;;1999.90;999.90;;;;;;;7.21;100.00;102320.16;5013902;28;20025;-72
2022/01/27 07:11:13;;;;;;;1999.90;999.90;;;;;;;7.08;100.00;102339.56;5014508;28;20029;-68
2022/01/27 07:13:40;;;;;;;1999.90;999.90;;;;;;;7.15;100.00;102325.47;5012586;28;20371;-69
2022/01/27 07:16:09;;;;;;;1999.90;999.90;;;;;;;7.06;100.00;102334.31;5014795;28;20057;-69
2022/01/27 07:18:34;;;;;;;1999.90;999.90;;;;;;;6.86;100.00;102340.56;5014538;28;20038;-69
2022/01/27 07:21:00;;;;;;;1999.90;999.90;;;;;;;6.79;100.00;102344.13;5016582;28;20508;-68
2022/01/27 07:23:25;;;;;;;1999.90;999.90;;;;;;;6.63;100.00;102345.03;5016429;28;20492;-69
2022/01/27 07:25:51;;;;;;;1999.90;999.90;;;;;;;6.62;100.00;102338.00;5017499;28;20080;-69
2022/01/27 07:28:16;;;;;;;1999.90;999.90;;;;;;;6.57;100.00;102329.22;5018226;28;20058;-69
2022/01/27 07:30:41;;;;;;;1999.90;999.90;;;;;;;6.48;100.00;102348.59;5017696;28;20044;-68
2022/01/27 07:33:07;;;;;;;1999.90;999.90;;;;;;;6.55;100.00;102352.97;5017297;28;20101;-69
2022/01/27 07:35:33;;;;;;;1999.90;999.90;;;;;;;6.49;100.00;102344.19;5015769;28;20022;-69
2022/01/27 07:37:58;;;;;;;1999.90;999.90;;;;;;;6.42;100.00;102334.53;5016411;28;20395;-69
2022/01/27 07:40:24;;;;;;;1999.90;999.90;;;;;;;6.46;100.00;102336.28;5016094;28;20034;-69
2022/01/27 07:42:49;;;;;;;1999.90;999.90;;;;;;;6.54;100.00;102334.50;5017288;28;20076;-70
2022/01/27 07:45:14;;;;;;;1999.90;999.90;;;;;;;6.46;100.00;102336.28;5017291;28;20029;-69
2022/01/27 07:47:40;;;;;;;1999.90;999.90;;;;;;;6.53;100.00;102336.25;5013380;28;20103;-69
2022/01/27 07:50:16;;;;;;;1999.90;999.90;;;;;;;6.51;100.00;102331.88;4996460;28;20477;-69
2022/01/27 07:52:41;;;;;;;1999.90;999.90;;;;;;;6.55;100.00;102342.44;4996083;28;20426;-70
2022/01/27 07:55:08;;;;;;;1999.90;999.90;;;;;;;6.62;100.00;102330.94;4997394;28;20113;-70
2022/01/27 07:57:34;;;;;;;1999.90;999.90;;;;;;;6.65;100.00;102340.66;4999296;28;20046;-69
2022/01/27 07:59:59;;;;;;;1999.90;999.90;;;;;;;6.62;100.00;102332.72;5015906;28;20026;-70
2022/01/27 08:02:24;;;;;;;1999.90;999.90;;;;;;;6.58;100.00;102334.50;5017845;28;20053;-70
2022/01/27 08:04:49;;;;;;;1999.90;999.90;;;;;;;6.66;100.00;102326.53;4995689;28;20038;-70
2022/01/27 08:07:15;;;;;;;1999.90;999.90;;;;;;;6.59;100.00;102338.88;4996745;28;20157;-69
2022/01/27 08:09:40;;;;;;;1999.90;999.90;;;;;;;6.60;100.00;102348.56;4996535;28;20022;-69
2022/01/27 08:12:06;;;;;;;1999.90;999.90;;;;;;;6.60;100.00;102340.66;5017069;28;20042;-69
2022/01/27 08:14:31;;;;;;;1999.90;999.90;;;;;;;6.63;100.00;102343.28;5016073;28;20036;-68
2022/01/27 08:16:56;;;;;;;1999.90;999.90;;;;;;;6.65;100.00;102341.50;5000016;28;20058;-72
2022/01/27 08:19:22;;;;;;;1999.90;999.90;;;;;;;6.65;100.00;102332.72;5032862;28;20022;-70
2022/01/27 08:21:47;;;;;;;1999.90;999.90;;;;;;;6.68;100.00;102335.34;5016550;28;20030;-71
2022/01/27 08:24:14;;;;;;;1999.90;999.90;;;;;;;6.66;100.00;102342.38;5007017;28;20038;-70
2022/01/27 08:26:43;;;;;;;1999.90;999.90;;;;;;;6.75;100.00;102347.63;5009048;28;20037;-75
2022/01/27 08:29:16;;;;;;;1999.90;999.90;;;;;;;6.75;100.00;102337.06;5017965;28;20018;-69
2022/01/27 08:34:33;;;;;;;1999.90;999.90;;;;;;;6.73;100.00;102331.78;4997410;28;20092;-69
2022/01/27 08:37:00;;;;;;;1999.90;999.90;;;;;;;6.75;100.00;102327.41;5013023;28;20163;-69
2022/01/27 08:39:26;;;;;;;1999.90;999.90;;;;;;;6.74;100.00;102333.56;5008200;28;20030;-70
2022/01/27 08:41:52;;;;;;;1999.90;999.90;;;;;;;6.85;100.00;102336.16;4998061;28;20037;-70
2022/01/27 08:44:17;;;;;;;1999.90;999.90;;;;;;;6.78;100.00;102330.03;4997103;28;20074;-70
2022/01/27 08:46:43;;;;;;;1999.90;999.90;;;;;;;6.84;100.00;102337.91;5006277;28;20068;-70
2022/01/27 08:49:09;;;;;;;1999.90;999.90;;;;;;;6.87;100.00;102329.13;5006760;28;20026;-69
2022/01/27 08:51:34;;;;;;;1999.90;999.90;;;;;;;6.79;100.00;102330.91;4999515;28;20033;-69
2022/01/27 08:54:00;;;;;;;1999.90;999.90;;;;;;;6.89;100.00;102327.34;5016157;28;20029;-69
2022/01/27 08:56:25;;;;;;;1999.90;999.90;;;;;;;6.91;100.00;102333.50;5004932;28;20026;-69
2022/01/27 08:58:51;;;;;;;1999.90;999.90;;;;;;;6.95;100.00;102322.91;5031305;28;20030;-70
2022/01/27 09:01:16;;;;;;;1999.90;999.90;;;;;;;6.98;100.00;102337.88;5015134;28;20022;-69
2022/01/27 09:03:42;;;;;;;1999.90;999.90;;;;;;;6.94;100.00;102352.84;5018097;28;20081;-69
2022/01/27 09:06:08;;;;;;;1999.90;999.90;;;;;;;6.93;100.00;102337.03;5014398;28;20109;-69
2022/01/27 09:08:33;;;;;;;1999.90;999.90;;;;;;;6.90;100.00;102343.16;5014692;28;20123;-69
2022/01/27 09:10:59;;;;;;;1999.90;999.90;;;;;;;6.98;100.00;102348.44;5013017;28;20472;-69
2022/01/27 09:13:24;;;;;;;1999.90;999.90;;;;;;;7.00;100.00;102336.09;5007442;28;20474;-69
2022/01/27 09:15:50;;;;;;;1999.90;999.90;;;;;;;6.97;100.00;102351.94;4997830;28;20661;-70
2022/01/27 09:18:16;;;;;;;1999.90;999.90;;;;;;;6.99;100.00;102339.63;5007641;28;20061;-70
2022/01/27 09:20:42;;;;;;;1999.90;999.90;;;;;;;7.04;100.00;102329.94;5013794;28;20121;-70
2022/01/27 09:23:13;;;;;;;1999.90;999.90;;;;;;;7.02;100.00;102329.94;5015009;28;20462;-70
2022/01/27 09:25:45;;;;;;;1999.90;999.90;;;;;;;6.98;100.00;102328.19;5011078;28;20023;-69
2022/01/27 09:28:12;;;;;;;1999.90;999.90;;;;;;;7.04;100.00;102322.00;4999342;28;20046;-69
2022/01/27 09:30:39;;;;;;;1999.90;999.90;;;;;;;7.13;100.00;102324.59;5009803;28;20384;-72
2022/01/27 09:33:04;;;;;;;1999.90;999.90;;;;;;;7.12;100.00;102315.78;5007899;28;20034;-71
2022/01/27 09:35:31;;;;;;;1999.90;999.90;;;;;;;7.19;100.00;102322.78;5010647;28;20040;-71
2022/01/27 09:37:57;;;;;;;1999.90;999.90;;;;;;;7.22;100.00;102330.72;5011466;28;20113;-71
2022/01/27 09:40:23;;;;;;;1999.90;999.90;;;;;;;7.35;100.00;102326.22;5018981;28;20064;-70
2022/01/27 09:42:53;;;;;;;1999.90;999.90;;;;;;;7.35;100.00;102324.47;5002995;28;20030;-72
2022/01/27 09:45:20;;;;;;;1999.90;999.90;;;;;;;7.47;100.00;102345.53;4998455;28;20026;-69
2022/01/27 09:47:54;;;;;;;1999.90;999.90;;;;;;;7.42;100.00;102334.09;4994841;28;20085;-70
2022/01/27 09:50:46;;;;;;;1999.90;999.90;;;;;;;7.58;100.00;102332.22;5014691;28;20030;-70
2022/01/27 09:53:11;;;;;;;1999.90;999.90;;;;;;;7.68;100.00;102341.88;5015224;28;20486;-69
2022/01/27 09:55:37;;;;;;;1999.90;999.90;;;;;;;7.61;100.00;102338.38;5007493;28;20037;-70
2022/01/27 09:58:29;;;;;;;1999.90;999.90;;;;;;;7.60;100.00;102330.47;5004836;28;20070;-76
2022/01/27 10:00:54;;;;;;;1999.90;999.90;;;;;;;7.52;100.00;102334.94;5012883;28;20147;-70
2022/01/27 10:03:21;;;;;;;1999.90;999.90;;;;;;;7.65;100.00;102344.53;5014701;28;20068;-70
2022/01/27 10:05:46;;;;;;;1999.90;999.90;;;;;;;7.61;100.00;102334.88;4998054;28;20045;-70
2022/01/27 10:08:16;;;;;;;1999.90;999.90;;;;;;;7.66;100.00;102336.59;5005007;28;20118;-71
2022/01/27 10:10:44;;;;;;;1999.90;999.90;;;;;;;7.75;100.00;102330.38;5015573;28;20136;-74
2022/01/27 10:13:12;;;;;;;1999.90;999.90;;;;;;;7.90;100.00;102324.94;5017342;28;20049;-71
2022/01/27 10:15:41;;;;;;;1999.90;999.90;;;;;;;7.88;100.00;102339.94;5012854;28;20029;-70
2022/01/27 10:18:18;;;;;;;1999.90;999.90;;;;;;;7.90;100.00;102330.25;5016918;28;20040;-73
2022/01/27 10:21:02;;;;;;;1999.90;999.90;;;;;;;7.87;100.00;102337.31;5012949;28;20291;-70
2022/01/27 10:23:39;;;;;;;1999.90;999.90;;;;;;;7.76;100.00;102330.38;5000414;28;20030;-68
2022/01/27 10:26:18;;;;;;;1999.90;999.90;;;;;;;7.93;100.00;102346.09;4994803;28;20030;-70
2022/01/27 10:31:24;;;;;;;1999.90;999.90;;;;;;;7.94;100.00;102336.38;4994730;28;20352;-68
2022/01/27 10:34:03;;;;;;;1999.90;999.90;;;;;;;7.92;100.00;102332.88;5015913;28;20022;-69
2022/01/27 10:36:43;;;;;;;1999.90;999.90;;;;;;;7.99;100.00;102350.47;5015043;28;20025;-68
2022/01/27 10:39:15;;;;;;;1999.90;999.90;;;;;;;7.90;100.00;102340.81;5005727;28;20022;-68
2022/01/27 10:42:00;;;;;;;1999.90;999.90;;;;;;;7.85;100.00;102339.97;5009275;28;20108;-68
2022/01/27 10:44:38;;;;;;;1999.90;999.90;;;;;;;7.95;100.00;102344.31;5013342;28;20397;-68
2022/01/27 10:47:14;;;;;;;1999.90;999.90;;;;;;;7.99;100.00;102332.81;5015567;28;20022;-67
2022/01/27 10:49:48;;;;;;;1999.90;999.90;;;;;;;8.06;100.00;102341.56;4998298;28;20023;-68
2022/01/27 10:52:27;;;;;;;1999.90;999.90;;;;;;;8.23;100.00;102329.97;5015287;28;20030;-68
2022/01/27 10:55:04;;;;;;;1999.90;999.90;;;;;;;8.22;100.00;102348.50;5016994;28;20026;-69
2022/01/27 10:57:29;;;;;;;1999.90;999.90;;;;;;;8.20;100.00;102340.56;5018214;28;20030;-68
2022/01/27 11:00:14;;;;;;;1999.90;999.90;;;;;;;8.27;100.00;102344.97;5017937;28;20385;-69
2022/01/27 11:02:57;;;;;;;1999.90;999.90;;;;;;;8.18;100.00;102344.13;5008232;28;20037;-68
2022/01/27 11:05:28;;;;;;;1999.90;999.90;;;;;;;8.17;100.00;102351.19;5017323;28;20026;-69
2022/01/27 11:07:53;;;;;;;1999.90;999.90;;;;;;;8.29;100.00;102345.78;5015748;28;20029;-70
2022/01/27 11:10:20;;;;;;;1999.90;999.90;;;;;;;8.29;100.00;102355.53;5006157;28;20037;-70
2022/01/27 11:12:46;;;;;;;1999.90;999.90;;;;;;;8.41;100.00;102356.28;5017669;28;20053;-70
2022/01/27 11:15:13;;;;;;;1999.90;999.90;;;;;;;8.32;100.00;102342.25;5012081;28;20029;-70
2022/01/27 11:17:40;;;;;;;1999.90;999.90;;;;;;;8.40;100.00;102343.91;5026138;28;20030;-69
2022/01/27 11:23:10;;;;;;;1999.90;999.90;;;;;;;8.56;100.00;102337.59;5025016;28;20038;-69
2022/01/27 11:28:01;;;;;;;1999.90;999.90;;;;;;;8.63;100.00;102334.00;5020225;28;20050;-70
2022/01/27 11:30:52;;;;;;;1999.90;999.90;;;;;;;8.78;100.00;102341.75;5016436;28;20469;-68
2022/01/27 11:33:18;;;;;;;1999.90;999.90;;;;;;;8.73;100.00;102335.63;5018107;28;20037;-69
2022/01/27 11:35:44;;;;;;;1999.90;999.90;;;;;;;8.71;100.00;102339.19;5018459;28;20117;-70
2022/01/27 11:38:10;;;;;;;1999.90;999.90;;;;;;;8.82;100.00;102335.53;5016993;28;20123;-69
2022/01/27 11:40:46;;;;;;;1999.90;999.90;;;;;;;8.88;100.00;102323.97;5018290;28;20549;-69